createdAt,value
2018-05-13T00:00:40.802Z,22.58
2018-05-13T00:03:07.283Z,22.57
2018-05-13T00:05:33.678Z,22.60
2018-05-13T00:08:00.048Z,22.61
2018-05-13T00:10:26.477Z,22.62
2018-05-13T00:12:52.835Z,22.62
2018-05-13T00:15:19.198Z,22.57
2018-05-13T00:17:45.575Z,22.57
2018-05-13T00:20:11.976Z,22.55
2018-05-13T00:22:38.402Z,22.53
2018-05-13T00:25:04.805Z,22.55
2018-05-13T00:27:31.201Z,22.52
2018-05-13T00:29:57.571Z,22.53
2018-05-13T00:32:23.962Z,22.52
2018-05-13T00:34:50.361Z,22.49
2018-05-13T00:37:16.783Z,22.49
2018-05-13T00:39:43.226Z,22.54
2018-05-13T00:42:09.602Z,22.48
2018-05-13T00:44:35.974Z,22.48
2018-05-13T00:47:02.387Z,22.46
2018-05-13T00:49:28.743Z,22.42
2018-05-13T00:51:55.107Z,22.43
2018-05-13T00:54:21.507Z,22.43
2018-05-13T00:56:47.876Z,22.41
2018-05-13T00:59:14.251Z,22.42
2018-05-13T01:01:40.703Z,22.42
2018-05-13T01:04:07.119Z,22.39
2018-05-13T01:06:33.487Z,22.43
2018-05-13T01:08:59.893Z,22.43
2018-05-13T01:11:26.277Z,22.37
2018-05-13T01:13:52.647Z,22.39
2018-05-13T01:16:19.018Z,22.36
2018-05-13T01:18:45.399Z,22.38
2018-05-13T01:21:11.862Z,22.40
2018-05-13T01:23:38.263Z,22.38
2018-05-13T01:26:04.659Z,22.33
2018-05-13T01:28:31.068Z,22.33
2018-05-13T01:30:57.454Z,22.31
2018-05-13T01:33:23.840Z,22.32
2018-05-13T01:35:50.194Z,22.34
2018-05-13T01:38:16.577Z,22.31
2018-05-13T01:40:42.942Z,22.28
2018-05-13T01:43:09.312Z,22.29
2018-05-13T01:45:35.670Z,22.28
2018-05-13T01:48:02.057Z,22.26
2018-05-13T01:50:28.436Z,22.28
2018-05-13T01:52:54.884Z,22.27
2018-05-13T01:55:21.291Z,22.25
2018-05-13T01:57:47.717Z,22.24
2018-05-13T02:00:14.254Z,22.26
2018-05-13T02:02:40.936Z,22.21
2018-05-13T02:05:07.494Z,22.20
2018-05-13T02:07:33.872Z,22.19
2018-05-13T02:10:00.354Z,22.26
2018-05-13T02:12:26.893Z,22.22
2018-05-13T02:14:53.366Z,22.19
2018-05-13T02:17:19.792Z,22.21
2018-05-13T02:19:46.195Z,22.17
2018-05-13T02:22:12.635Z,22.20
2018-05-13T02:24:39.059Z,22.19
2018-05-13T02:27:05.459Z,22.14
2018-05-13T02:29:31.802Z,22.11
2018-05-13T02:31:58.225Z,22.14
2018-05-13T02:34:24.707Z,22.17
2018-05-13T02:36:51.094Z,22.08
2018-05-13T02:39:17.530Z,22.13
2018-05-13T02:41:43.906Z,22.11
2018-05-13T02:44:10.506Z,22.08
2018-05-13T02:46:36.893Z,22.06
2018-05-13T02:49:03.241Z,22.07
2018-05-13T02:51:29.612Z,22.10
2018-05-13T02:53:55.977Z,22.09
2018-05-13T02:56:22.425Z,22.04
2018-05-13T02:58:48.796Z,22.08
2018-05-13T03:01:15.144Z,21.99
2018-05-13T03:03:41.650Z,22.03
2018-05-13T03:06:08.024Z,22.03
2018-05-13T03:08:34.436Z,21.99
2018-05-13T03:11:00.798Z,21.99
2018-05-13T03:13:27.197Z,22.02
2018-05-13T03:15:53.552Z,21.98
2018-05-13T03:18:19.875Z,21.96
2018-05-13T03:20:46.298Z,22.02
2018-05-13T03:23:12.756Z,22.02
2018-05-13T03:25:39.082Z,21.97
2018-05-13T03:28:05.446Z,22.02
2018-05-13T03:30:31.859Z,21.94
2018-05-13T03:32:59.250Z,21.94
2018-05-13T03:35:25.739Z,21.98
2018-05-13T03:37:52.096Z,21.98
2018-05-13T03:40:18.433Z,21.95
2018-05-13T03:42:44.849Z,21.99
2018-05-13T03:45:11.276Z,22.07
2018-05-13T03:47:37.718Z,22.02
2018-05-13T03:50:04.064Z,22.03
2018-05-13T03:52:30.462Z,22.08
2018-05-13T03:54:56.868Z,22.06
2018-05-13T03:57:23.299Z,22.09
2018-05-13T03:59:49.709Z,22.09
2018-05-13T04:02:16.066Z,22.10
2018-05-13T04:04:42.597Z,22.16
2018-05-13T04:07:08.965Z,22.22
2018-05-13T04:09:35.524Z,22.26
2018-05-13T04:12:01.946Z,22.31
2018-05-13T04:14:28.328Z,22.34
2018-05-13T04:16:54.752Z,22.37
2018-05-13T04:19:21.065Z,22.40
2018-05-13T04:21:47.500Z,22.41
2018-05-13T04:24:13.960Z,22.44
2018-05-13T04:26:40.458Z,22.48
2018-05-13T04:29:06.803Z,22.48
2018-05-13T04:31:33.173Z,22.52
2018-05-13T04:33:59.510Z,22.55
2018-05-13T04:36:25.945Z,22.57
2018-05-13T04:38:52.271Z,22.61
2018-05-13T04:41:18.604Z,22.62
2018-05-13T04:43:45.051Z,22.66
2018-05-13T04:46:11.410Z,22.66
2018-05-13T04:48:37.768Z,22.69
2018-05-13T04:51:04.112Z,22.68
2018-05-13T04:53:30.575Z,22.68
2018-05-13T04:55:56.946Z,22.67
2018-05-13T04:58:23.348Z,22.68
2018-05-13T05:00:49.756Z,22.69
2018-05-13T05:03:16.078Z,22.70
2018-05-13T05:05:42.437Z,22.70
2018-05-13T05:08:08.865Z,22.72
2018-05-13T05:10:35.240Z,22.73
2018-05-13T05:13:01.585Z,22.73
2018-05-13T05:15:27.907Z,22.77
2018-05-13T05:17:54.261Z,22.77
2018-05-13T05:20:20.800Z,22.77
2018-05-13T05:22:47.183Z,22.77
2018-05-13T05:25:13.596Z,22.78
2018-05-13T05:27:39.975Z,22.79
2018-05-13T05:30:06.450Z,22.78
2018-05-13T05:32:32.838Z,22.77
2018-05-13T05:34:59.184Z,22.75
2018-05-13T05:37:25.505Z,22.76
2018-05-13T05:39:51.837Z,22.76
2018-05-13T05:42:18.218Z,22.75
2018-05-13T05:44:44.555Z,22.73
2018-05-13T05:47:11.025Z,22.76
2018-05-13T05:49:37.377Z,22.72
2018-05-13T05:52:03.756Z,22.75
2018-05-13T05:54:30.251Z,22.71
2018-05-13T05:59:29.042Z,22.70
2018-05-13T06:01:55.412Z,22.68
2018-05-13T06:04:21.753Z,22.69
2018-05-13T06:06:48.111Z,22.69
2018-05-13T06:09:14.444Z,22.70
2018-05-13T06:11:40.853Z,22.72
2018-05-13T06:14:07.234Z,22.71
2018-05-13T06:16:33.553Z,22.72
2018-05-13T06:18:59.889Z,22.72
2018-05-13T06:21:26.345Z,22.75
2018-05-13T06:23:52.722Z,22.77
2018-05-13T06:26:19.082Z,22.78
2018-05-13T06:28:45.415Z,22.79
2018-05-13T06:31:11.960Z,22.79
2018-05-13T06:33:38.371Z,22.83
2018-05-13T06:36:04.780Z,22.83
2018-05-13T06:38:31.127Z,22.85
2018-05-13T06:40:57.496Z,22.87
2018-05-13T06:43:23.830Z,22.90
2018-05-13T06:45:50.160Z,22.94
2018-05-13T06:48:16.492Z,22.99
2018-05-13T06:50:42.927Z,23.02
2018-05-13T06:53:09.248Z,23.03
2018-05-13T06:55:35.681Z,23.07
2018-05-13T06:58:02.044Z,23.08
2018-05-13T07:00:28.420Z,23.10
2018-05-13T07:02:54.908Z,23.10
2018-05-13T07:05:21.216Z,23.10
2018-05-13T07:07:47.549Z,23.10
2018-05-13T07:10:13.900Z,23.11
2018-05-13T07:12:40.301Z,23.14
2018-05-13T07:15:06.747Z,23.14
2018-05-13T07:17:33.108Z,23.14
2018-05-13T07:19:59.608Z,23.17
2018-05-13T07:22:25.965Z,23.17
2018-05-13T07:24:52.300Z,23.17
2018-05-13T07:27:18.700Z,23.20
2018-05-13T07:29:45.177Z,23.21
2018-05-13T07:32:11.708Z,23.23
2018-05-13T07:34:38.188Z,23.25
2018-05-13T07:37:04.694Z,23.27
2018-05-13T07:39:31.020Z,23.27
2018-05-13T07:41:57.590Z,23.30
2018-05-13T07:44:23.964Z,23.35
2018-05-13T07:46:50.352Z,23.34
2018-05-13T07:49:16.755Z,23.35
2018-05-13T07:51:43.152Z,23.39
2018-05-13T07:54:09.516Z,23.44
2018-05-13T07:56:35.948Z,23.44
2018-05-13T07:59:02.292Z,23.47
2018-05-13T08:01:28.630Z,23.50
2018-05-13T08:03:55.060Z,23.53
2018-05-13T08:06:21.451Z,23.54
2018-05-13T08:08:47.821Z,23.59
2018-05-13T08:11:14.144Z,23.62
2018-05-13T08:13:40.570Z,23.65
2018-05-13T08:16:07.128Z,23.65
2018-05-13T08:18:33.465Z,23.65
2018-05-13T08:20:59.852Z,23.71
2018-05-13T08:23:26.256Z,23.74
2018-05-13T08:25:52.713Z,23.75
2018-05-13T08:28:19.042Z,23.76
2018-05-13T08:30:45.568Z,23.80
2018-05-13T08:33:11.907Z,23.81
2018-05-13T08:35:38.312Z,23.84
2018-05-13T08:38:04.688Z,23.86
2018-05-13T08:40:31.137Z,23.87
2018-05-13T08:42:57.621Z,23.87
2018-05-13T08:45:24.050Z,23.88
2018-05-13T08:47:50.405Z,23.91
2018-05-13T08:50:16.900Z,23.91
2018-05-13T08:52:43.252Z,23.92
2018-05-13T08:55:09.651Z,23.95
2018-05-13T08:57:36.037Z,23.96
2018-05-13T09:00:02.414Z,23.98
2018-05-13T09:02:28.845Z,23.98
2018-05-13T09:04:55.267Z,24.00
2018-05-13T09:07:21.737Z,24.00
2018-05-13T09:09:48.105Z,24.01
2018-05-13T09:12:14.481Z,24.02
2018-05-13T09:14:40.947Z,24.04
2018-05-13T09:17:07.369Z,24.04
2018-05-13T09:19:33.764Z,24.04
2018-05-13T09:22:00.152Z,24.06
2018-05-13T09:24:26.574Z,24.08
2018-05-13T09:26:52.988Z,24.09
2018-05-13T09:29:19.336Z,24.08
2018-05-13T09:31:45.821Z,24.11
2018-05-13T09:34:12.261Z,24.10
2018-05-13T09:36:38.611Z,24.09
2018-05-13T09:39:05.013Z,24.09
2018-05-13T09:41:31.358Z,24.12
2018-05-13T09:43:57.717Z,24.12
2018-05-13T09:46:24.049Z,24.15
2018-05-13T09:48:50.379Z,24.15
2018-05-13T09:51:16.751Z,24.16
2018-05-13T09:53:43.089Z,24.16
2018-05-13T09:56:09.469Z,24.18
2018-05-13T09:58:35.811Z,24.17
2018-05-13T10:01:02.172Z,24.17
2018-05-13T10:03:28.497Z,24.16
2018-05-13T10:05:54.861Z,24.18
2018-05-13T10:08:21.227Z,24.19
2018-05-13T10:10:47.580Z,24.19
2018-05-13T10:13:13.967Z,24.19
2018-05-13T10:15:40.386Z,24.21
2018-05-13T10:18:06.753Z,24.21
2018-05-13T10:20:33.093Z,24.24
2018-05-13T10:22:59.459Z,24.24
2018-05-13T10:25:25.880Z,24.25
2018-05-13T10:27:52.231Z,24.24
2018-05-13T10:30:18.557Z,24.23
2018-05-13T10:32:44.942Z,24.24
2018-05-13T10:35:11.348Z,24.24
2018-05-13T10:37:37.675Z,24.26
2018-05-13T10:40:04.032Z,24.25
2018-05-13T10:42:30.411Z,24.23
2018-05-13T10:44:56.736Z,24.26
2018-05-13T10:47:23.075Z,24.27
2018-05-13T10:49:49.408Z,24.29
2018-05-13T10:52:15.783Z,24.28
2018-05-13T10:54:42.105Z,24.28
2018-05-13T10:57:08.432Z,24.30
2018-05-13T10:59:34.767Z,24.30
2018-05-13T11:02:01.124Z,24.33
2018-05-13T11:04:27.538Z,24.32
2018-05-13T11:06:53.918Z,24.36
2018-05-13T11:09:20.293Z,24.34
2018-05-13T11:11:46.612Z,24.35
2018-05-13T11:14:12.981Z,24.39
2018-05-13T11:16:39.320Z,24.39
2018-05-13T11:19:05.684Z,24.41
2018-05-13T11:21:32.001Z,24.42
2018-05-13T11:23:58.405Z,24.42
2018-05-13T11:26:24.768Z,24.43
2018-05-13T11:28:51.137Z,24.43
2018-05-13T11:31:17.451Z,24.43
2018-05-13T11:33:43.861Z,24.44
2018-05-13T11:36:10.339Z,24.46
2018-05-13T11:38:36.662Z,24.47
2018-05-13T11:41:02.989Z,24.49
2018-05-13T11:43:29.373Z,24.49
2018-05-13T11:45:55.745Z,24.50
2018-05-13T11:48:22.086Z,24.48
2018-05-13T11:50:48.455Z,24.47
2018-05-13T11:53:14.859Z,24.46
2018-05-13T11:55:41.231Z,24.43
2018-05-13T11:58:07.580Z,24.45
2018-05-13T12:00:33.978Z,24.46
2018-05-13T12:03:00.362Z,24.46
2018-05-13T12:05:26.708Z,24.44
2018-05-13T12:07:53.043Z,24.43
2018-05-13T12:10:19.441Z,24.40
2018-05-13T12:12:45.829Z,24.39
2018-05-13T12:15:12.276Z,24.36
2018-05-13T12:17:38.544Z,24.36
2018-05-13T12:20:04.891Z,24.39
2018-05-13T12:22:31.212Z,24.36
2018-05-13T12:24:57.578Z,24.34
2018-05-13T12:27:24.017Z,24.31
2018-05-13T12:29:50.374Z,24.29
2018-05-13T12:32:16.709Z,24.26
2018-05-13T12:34:43.136Z,24.27
2018-05-13T12:37:09.541Z,24.28
2018-05-13T12:39:35.876Z,24.29
2018-05-13T12:42:02.407Z,24.27
2018-05-13T12:44:28.748Z,24.25
2018-05-13T12:46:55.145Z,24.25
2018-05-13T12:49:21.484Z,24.24
2018-05-13T12:51:47.814Z,24.23
2018-05-13T12:54:14.208Z,24.23
2018-05-13T12:56:40.576Z,24.23
2018-05-13T12:59:06.945Z,24.25
2018-05-13T13:01:33.275Z,24.21
2018-05-13T13:03:59.648Z,24.21
2018-05-13T13:06:26.025Z,24.27
2018-05-13T13:08:52.352Z,24.20
2018-05-13T13:11:18.709Z,24.25
2018-05-13T13:13:45.138Z,24.27
2018-05-13T13:16:11.503Z,24.26
2018-05-13T13:18:37.859Z,24.27
2018-05-13T13:21:04.225Z,24.24
2018-05-13T13:23:30.588Z,24.24
2018-05-13T13:25:56.994Z,24.28
2018-05-13T13:28:23.391Z,24.28
2018-05-13T13:30:49.737Z,24.27
2018-05-13T13:33:16.120Z,24.26
2018-05-13T13:35:42.479Z,24.26
2018-05-13T13:38:08.853Z,24.25
2018-05-13T13:40:35.183Z,24.24
2018-05-13T13:43:01.559Z,24.21
2018-05-13T13:45:27.939Z,24.19
2018-05-13T13:47:54.269Z,24.21
2018-05-13T13:50:20.631Z,24.23
2018-05-13T13:52:46.964Z,24.23
2018-05-13T13:55:13.309Z,24.20
2018-05-13T13:57:39.630Z,24.23
2018-05-13T14:00:05.958Z,24.23
2018-05-13T14:02:32.320Z,24.21
2018-05-13T14:04:58.706Z,24.24
2018-05-13T14:07:25.089Z,24.20
2018-05-13T14:09:51.426Z,24.23
2018-05-13T14:12:17.764Z,24.19
2018-05-13T14:14:44.135Z,24.21
2018-05-13T14:17:10.507Z,24.20
2018-05-13T14:19:36.925Z,24.20
2018-05-13T14:22:03.304Z,24.17
2018-05-13T14:24:29.652Z,24.20
2018-05-13T14:26:56.078Z,24.24
2018-05-13T14:29:22.481Z,24.23
2018-05-13T14:31:48.841Z,24.25
2018-05-13T14:34:15.232Z,24.21
2018-05-13T14:36:41.684Z,24.23
2018-05-13T14:39:12.125Z,24.20
2018-05-13T14:41:34.401Z,24.17
2018-05-13T14:44:00.780Z,24.16
2018-05-13T14:46:27.112Z,24.16
2018-05-13T14:48:53.484Z,24.15
2018-05-13T14:51:19.816Z,24.13
2018-05-13T14:53:46.188Z,24.14
2018-05-13T14:56:12.510Z,24.13
2018-05-13T14:58:38.874Z,24.12
2018-05-13T15:03:37.704Z,24.11
2018-05-13T15:06:04.087Z,24.10
2018-05-13T15:08:30.468Z,24.09
2018-05-13T15:10:56.824Z,24.06
2018-05-13T15:13:23.274Z,24.08
2018-05-13T15:15:49.741Z,24.09
2018-05-13T15:18:16.068Z,24.04
2018-05-13T15:20:42.530Z,24.05
2018-05-13T15:23:08.865Z,24.03
2018-05-13T15:25:35.198Z,24.03
2018-05-13T15:28:01.564Z,24.01
2018-05-13T15:30:27.938Z,23.99
2018-05-13T15:32:54.288Z,24.00
2018-05-13T15:35:20.624Z,24.00
2018-05-13T15:37:47.025Z,23.99
2018-05-13T15:40:13.391Z,23.98
2018-05-13T15:42:39.850Z,23.97
2018-05-13T15:45:06.123Z,23.96
2018-05-13T15:47:32.492Z,23.92
2018-05-13T15:49:58.820Z,23.94
2018-05-13T15:52:25.260Z,23.91
2018-05-13T15:54:51.611Z,23.91
2018-05-13T15:57:18.018Z,23.91
2018-05-13T15:59:44.372Z,23.89
2018-05-13T16:02:10.796Z,23.87
2018-05-13T16:04:37.201Z,23.88
2018-05-13T16:07:03.684Z,23.88
2018-05-13T16:09:30.035Z,23.88
2018-05-13T16:11:56.392Z,23.84
2018-05-13T16:14:22.743Z,23.84
2018-05-13T16:16:49.084Z,23.83
2018-05-13T16:19:15.468Z,23.83
2018-05-13T16:21:41.838Z,23.81
2018-05-13T16:24:08.236Z,23.79
2018-05-13T16:26:34.581Z,23.77
2018-05-13T16:29:00.920Z,23.79
2018-05-13T16:31:27.242Z,23.77
2018-05-13T16:33:53.611Z,23.79
2018-05-13T16:36:20.000Z,23.81
2018-05-13T16:38:46.396Z,23.77
2018-05-13T16:41:12.759Z,23.75
2018-05-13T16:43:39.085Z,23.76
2018-05-13T16:46:05.488Z,23.71
2018-05-13T16:48:31.829Z,23.71
2018-05-13T16:50:58.164Z,23.70
2018-05-13T16:53:24.518Z,23.71
2018-05-13T16:55:50.912Z,23.71
2018-05-13T16:58:17.231Z,23.69
2018-05-13T17:00:43.575Z,23.67
2018-05-13T17:03:09.914Z,23.62
2018-05-13T17:05:36.245Z,23.66
2018-05-13T17:08:02.601Z,23.64
2018-05-13T17:10:28.941Z,23.64
2018-05-13T17:12:55.312Z,23.62
2018-05-13T17:15:21.653Z,23.59
2018-05-13T17:17:48.038Z,23.58
2018-05-13T17:20:14.365Z,23.59
2018-05-13T17:22:40.708Z,23.53
2018-05-13T17:25:07.136Z,23.57
2018-05-13T17:27:33.516Z,23.55
2018-05-13T17:29:59.903Z,23.54
2018-05-13T17:32:26.246Z,23.55
2018-05-13T17:34:52.648Z,23.51
2018-05-13T17:37:19.018Z,23.46
2018-05-13T17:39:45.400Z,23.45
2018-05-13T17:42:11.763Z,23.46
2018-05-13T17:44:38.157Z,23.47
2018-05-13T17:47:04.526Z,23.47
2018-05-13T17:49:30.898Z,23.45
2018-05-13T17:51:57.292Z,23.39
2018-05-13T17:54:23.675Z,23.40
2018-05-13T17:56:50.063Z,23.38
2018-05-13T17:59:16.391Z,23.40
2018-05-13T18:01:42.768Z,23.42
2018-05-13T18:04:09.094Z,23.37
2018-05-13T18:06:35.452Z,23.42
2018-05-13T18:09:01.778Z,23.34
2018-05-13T18:11:28.119Z,23.34
2018-05-13T18:13:54.448Z,23.36
2018-05-13T18:16:20.830Z,23.32
2018-05-13T18:18:47.145Z,23.37
2018-05-13T18:21:13.469Z,23.35
2018-05-13T18:23:39.805Z,23.35
2018-05-13T18:26:06.137Z,23.30
2018-05-13T18:28:32.504Z,23.31
2018-05-13T18:30:58.946Z,23.30
2018-05-13T18:33:25.283Z,23.34
2018-05-13T18:35:51.613Z,23.30
2018-05-13T18:38:17.932Z,23.28
2018-05-13T18:40:44.260Z,23.30
2018-05-13T18:43:10.584Z,23.25
2018-05-13T18:45:36.904Z,23.24
2018-05-13T18:48:03.221Z,23.25
2018-05-13T18:50:29.556Z,23.25
2018-05-13T18:52:55.913Z,23.21
2018-05-13T18:55:22.232Z,23.18
2018-05-13T18:57:48.556Z,23.20
2018-05-13T19:00:14.946Z,23.16
2018-05-13T19:02:41.279Z,23.13
2018-05-13T19:05:07.609Z,23.15
2018-05-13T19:07:33.980Z,23.17
2018-05-13T19:10:00.306Z,23.16
2018-05-13T19:12:26.738Z,23.20
2018-05-13T19:14:53.051Z,23.16
2018-05-13T19:17:19.380Z,23.10
2018-05-13T19:19:45.708Z,23.13
2018-05-13T19:22:12.089Z,23.08
2018-05-13T19:24:38.481Z,23.13
2018-05-13T19:27:04.796Z,23.10
2018-05-13T19:29:31.158Z,23.10
2018-05-13T19:31:57.520Z,23.08
2018-05-13T19:34:23.872Z,23.07
2018-05-13T19:36:50.205Z,23.09
2018-05-13T19:39:16.539Z,22.98
2018-05-13T19:41:42.880Z,23.05
2018-05-13T19:44:09.194Z,23.05
2018-05-13T19:46:35.512Z,23.03
2018-05-13T19:49:01.868Z,23.02
2018-05-13T19:51:28.228Z,22.99
2018-05-13T19:53:54.540Z,23.01
2018-05-13T19:56:20.930Z,22.97
2018-05-13T19:58:47.295Z,22.96
2018-05-13T20:01:13.686Z,22.97
2018-05-13T20:03:40.150Z,22.97
2018-05-13T20:06:06.391Z,22.92
2018-05-13T20:08:32.767Z,22.88
2018-05-13T20:10:59.109Z,22.93
2018-05-13T20:13:25.417Z,22.92
2018-05-13T20:15:51.728Z,22.86
2018-05-13T20:18:18.052Z,22.91
2018-05-13T20:20:44.423Z,22.93
2018-05-13T20:23:10.757Z,22.84
2018-05-13T20:25:37.116Z,22.87
2018-05-13T20:28:03.433Z,22.88
2018-05-13T20:30:29.775Z,22.84
2018-05-13T20:32:56.135Z,22.83
2018-05-13T20:35:22.459Z,22.84
2018-05-13T20:37:48.783Z,22.81
2018-05-13T20:40:15.107Z,22.80
2018-05-13T20:42:41.429Z,22.77
2018-05-13T20:45:07.761Z,22.80
2018-05-13T20:47:34.124Z,22.80
2018-05-13T20:50:00.458Z,22.78
2018-05-13T20:52:26.812Z,22.78
2018-05-13T20:54:53.170Z,22.73
2018-05-13T20:57:19.484Z,22.77
2018-05-13T20:59:45.860Z,22.76
2018-05-13T21:02:12.225Z,22.72
2018-05-13T21:04:38.560Z,22.70
2018-05-13T21:07:04.887Z,22.71
2018-05-13T21:09:31.201Z,22.70
2018-05-13T21:11:57.585Z,22.70
2018-05-13T21:14:23.938Z,22.66
2018-05-13T21:16:50.308Z,22.70
2018-05-13T21:19:16.671Z,22.68
2018-05-13T21:21:43.038Z,22.66
2018-05-13T21:24:09.395Z,22.65
2018-05-13T21:26:35.802Z,22.65
2018-05-13T21:29:02.172Z,22.63
2018-05-13T21:31:28.549Z,22.58
2018-05-13T21:33:54.969Z,22.62
2018-05-13T21:36:21.347Z,22.57
2018-05-13T21:38:47.711Z,22.57
2018-05-13T21:41:14.114Z,22.53
2018-05-13T21:43:40.535Z,22.58
2018-05-13T21:46:06.954Z,22.54
2018-05-13T21:48:33.326Z,22.57
2018-05-13T21:50:59.720Z,22.49
2018-05-13T21:53:26.179Z,22.50
2018-05-13T21:55:52.543Z,22.53
2018-05-13T21:58:18.955Z,22.50
2018-05-13T22:00:45.352Z,22.47
2018-05-13T22:03:11.785Z,22.43
2018-05-13T22:05:38.170Z,22.47
2018-05-13T22:08:04.541Z,22.44
2018-05-13T22:10:30.909Z,22.42
2018-05-13T22:12:57.324Z,22.40
2018-05-13T22:15:23.815Z,22.40
2018-05-13T22:17:50.179Z,22.44
2018-05-13T22:20:16.629Z,22.42
2018-05-13T22:22:43.007Z,22.38
2018-05-13T22:25:09.430Z,22.40
2018-05-13T22:27:35.805Z,22.36
2018-05-13T22:30:02.173Z,22.36
2018-05-13T22:32:28.618Z,22.33
2018-05-13T22:34:55.044Z,22.34
2018-05-13T22:37:21.427Z,22.34
2018-05-13T22:39:47.799Z,22.35
2018-05-13T22:42:14.170Z,22.34
2018-05-13T22:44:40.544Z,22.32
2018-05-13T22:47:06.950Z,22.29
2018-05-13T22:49:33.316Z,22.29
2018-05-13T22:51:59.766Z,22.27
2018-05-13T22:54:26.131Z,22.29
2018-05-13T22:56:52.527Z,22.25
2018-05-13T22:59:18.899Z,22.27
2018-05-13T23:01:45.277Z,22.26
2018-05-13T23:04:11.730Z,22.22
2018-05-13T23:06:38.096Z,22.24
2018-05-13T23:09:04.574Z,22.23
2018-05-13T23:11:30.922Z,22.21
2018-05-13T23:13:57.298Z,22.18
2018-05-13T23:16:23.702Z,22.13
2018-05-13T23:18:50.075Z,22.13
2018-05-13T23:21:16.478Z,22.20
2018-05-13T23:23:42.850Z,22.16
2018-05-13T23:26:09.269Z,22.17
2018-05-13T23:28:35.707Z,22.17
2018-05-13T23:31:02.030Z,22.11
2018-05-13T23:33:28.406Z,22.09
2018-05-13T23:35:54.794Z,22.13
2018-05-13T23:38:21.170Z,22.13
2018-05-13T23:40:47.556Z,22.07
2018-05-13T23:43:13.959Z,22.10
2018-05-13T23:45:40.370Z,22.08
2018-05-13T23:48:06.757Z,22.03
2018-05-13T23:50:33.139Z,22.05
2018-05-13T23:52:59.538Z,22.06
2018-05-13T23:55:25.904Z,22.08
2018-05-13T23:57:52.269Z,22.04
